Timeline UpdatesTrip UpdatesNews PostsPvt PostsTravel TipsAdmin PostsConv PostsFollowed PostsChat RequestsBlog PostsPNR Posts

Disclaimer
Search
 
 
Sat Aug 2, 2014 05:55:27 ISTHomeTrainsΣChainsAtlasPNRForumGalleryNewsFAQTripsMembersLoginFeedback
No Recent News for this Train
Other Trains in the News **new
Latest...
Will be short originated from Faizabad from 27/11 to 04/12.
Mon Nov 25, 2013 (01:33PM)
⇐ Return Journey: Train# 54334

54333/Varanasi Lucknow Passenger (UnReserved)

Sep 12 2013 (12:46PM)
Change Departure Station:
Change Arrival Station:
Post a Train Travel TipPost a Train Travel Tip **new
Post a Comment/Question/Picture/VideoPost a Comment/Question/Picture/Video
Pantry/Catering
???
RSA - Rake Sharing
Rake/Coach Composition
Loco
News    PNR    Forum    Time-Table    Availability    Fare Chart    Map    Arr/Dep History    Trips    Gallery    ΣChains    X/O    Timeline    
Travel Time: 7h 26m    35 halts    Distance: 248 km    Avg Speed: 33 km/hr
Type: Passenger
Zone: NR/Northern
Departs @ 04:10 (Avg 2m late)
Platform# 7
SMTWTFS
Varanasi Junction/BSB 
Arrives @ 11:36 (Avg 2h 8m late)
Platform# ???
SMTWTFS
Patranga/PTH 

35 halts. 36 intermediate Stations between Varanasi Junction and Patranga

Show ALL intermediate Stations  Show Old Time-Table

#CodeStation NameX/OArrivesAvgDepartsAvgHaltPFDay#KmSpeedElevZoneAddress
1BSB»Varanasi Junction (9)»  -04:10+2710.03482mNRVaranasi 221002, Uttar Pradesh
2SOPShivpur (3)  04:20+1604:21+201m--15.64881mNRVaranasi, Uttar Pradesh
3BRPTBirapatti (2)X  04:29+2104:30+211m--112.05084mNRRd Varanasi Uttar Pradesh, Uttar Pradesh
4BTPBabatpur (2)X  04:38+2004:39+251m--118.65484mNRSatomahua-Mangari Rd, Uttar Pradesh
5PDRDPindra Road (2)X  04:45-04:46-1m--124.03981mNRSatomahua-Mangari Rd, Uttar Pradesh
6KSFKhalispur (2)  04:52+2704:53+271m--127.93983mNRPhulpur, Uttar Pradesh
7TLMDTrilochan Mahdo (2)X  05:01+2405:02+241m--133.15383mNRNational Highway 56, Uttar Pradesh
8JLLJalalGanj (2)X  05:09+2405:10+371m--139.25187mNRJalalganj Railway Station, Uttar Pradesh
9SIQSarkoni (2)  05:17+3805:18+381m--145.13385mNRBandipur, Uttar Pradesh
10ZBDZafarabad Junction (4)  05:29+3605:30+451m--151.24383mNRNational Highway 56, Uttar Pradesh
11JNUJaunpur Junction (5)  05:39+4105:41+492m--157.73783mNRJaunpur, Uttar Pradesh
12MGWNMahgawan Halt (1)  05:51+1:0305:52+1:031m1163.85184mNRDalhanpur, Uttar Pradesh
13MIHMihrawan (1)  05:59+5906:00+1:091m1169.74988mNRChak Bhavani Shanker, Uttar Pradesh
14MNKNManikalan Halt (1)X  06:07-06:08-1m1175.54285mNRNawab Yousuf Rd, Uttar Pradesh
15KSKheta Sarai (1)  06:15+1:0806:16+1:141m1180.43488mNRKheta Sarai, Uttar Pradesh
16SHGShahganj Junction (4)X  06:35+5906:43+1:148m1191.013290mNRShahganj, Uttar Pradesh
17BWIBilwai (1)X  06:48+1:4106:49+1:421m11102.04891mNRBilwai, Uttar Pradesh
18TLGRTulsi NagarX  06:57+1:4306:58+1:491m--1108.45191mNRNawab Yousuf Rd, Uttar Pradesh
19MLPRMalipur (2)  07:07+1:4907:08+1:561m--1116.05992mNRMalipur, Uttar Pradesh
20JFGJafarganj  07:18+1:5807:19+2:001m--1125.94692mNRNawab Yousuf Rd, Uttar Pradesh
21ABPAkbarpur (2)X  07:31+1:5907:33+2:062m--1135.16392mNRAkbarpur, Uttar Pradesh
22KTHEKatahri  07:44+2:0807:45+2:101m--1146.76495mNRKatehri, Uttar Pradesh
23GGJGoshainGanj (3)  07:55+1:5307:56+1:551m--1157.35698mNRGoshainganj, Uttar Pradesh
24ULNUlna BhariX  08:05+2:1608:06+2:271m--1165.757104mNRNawab Yousuf Rd, Uttar Pradesh
25BLGBilhar Ghat  08:15+2:1108:16+2:111m--1174.254104mNRNawab Yousuf Rd, Uttar Pradesh
26DRGDarshannagar (2)  08:27+2:1108:28+2:201m--1184.127103mNRayodhya, Uttar Pradesh
27AYAyodhya Junction (3)X  08:39+2:1808:40+2:391m--1189.01998mNRAyodhya, Uttar Pradesh
28ACNDAcharya Narendra Dev Nagar  08:54+2:3608:55+3:011m--1193.52104mNRFaizabad, Uttar Pradesh
29FDFaizabad Junction (5)X  10:00+1:0910:13+1:1013m--1195.747104mNRFaizabad, Uttar Pradesh
30SLRPSalarpurX  10:24+2:1510:25+2:221m--1204.444106mNRJaganpur, Uttar Pradesh
31SLWSohwalX  10:34+2:2310:35+2:271m--1211.051107mNRFaizabad Rd, Uttar Pradesh
32DELODeorakot  10:44+2:2910:45+2:371m--1218.735110mNRDewracoat, Uttar Pradesh
33BNMBaragaon  10:55+2:3510:56+2:381m--1224.643115mNRFaizabad Rd, Uttar Pradesh
34GMUGauriyamau  11:02-11:03-1m--1228.833108mNRFaizabad Rd, Uttar Pradesh
35RDLRudauli (2)  11:12+2:3411:13+2:381m--1233.833112mNRRudauli, Uttar Pradesh
36RZNRauzagaon  11:23+2:3611:24+2:361m--1239.445111mNRFaizabad Rd, Uttar Pradesh
37PTH•Patranga•  11:36+2:0811:37+2:111m--1248.437113mNRFaizabad Rd, Uttar Pradesh
38DYDDaryabad  11:51+2:3311:52+2:361m--1257.039116mNRFaizabad Rd, Uttar Pradesh
39SYKSaidkhanpur  12:07+2:3312:08+2:431m--1266.738116mNRSaidkhanpur, Uttar Pradesh
40SGJSafdarGanj  12:24+2:3912:25+2:461m--1276.847116mNRFaizabad Rd, Uttar Pradesh
41RESRasauliXO  12:39+2:4412:40+2:511m--1287.73125mNRFaizabad Rd, Uttar Pradesh
42BBKBarabanki Junction (4)  15:09+5615:10+571m--1295.030122mNRPin-225001, Uttar Pradesh
43SFHSafedabad (3)  15:25+5115:26+511m--1302.629120mNRBarabanki, Uttar Pradesh
44JRRJugaur (1)X  15:33-15:34-1m11306.033123mNRCanal Rd, Uttar Pradesh
45MLMalhaur (3)  15:44+4815:45+1:221m--1311.524121mNRLucknow, Uttar Pradesh
46LKOLucknow Charbagh (9)  16:15+1:22-41323.4-123mNR226004, Uttar Pradesh
Scroll to Top
Scroll to Bottom